Lintong, China
Current Conditions -  °F | °C
As of 10:00 PM on Saturday 22 Nov 2014 (Local Time) from ZLXY Reporting Station
Light Rain Light Rain  
Wind Chill: 38°   Ceiling: 3000
Heat Index: 41°   Visibility: 0.62mi
Dew Point: 39°   Wind: 4mph
Humidity: 93%   Direction: 260°W
Pressure: 30.27"   Gusts: NA
Location:  34.37°N, 109.2°E
Report Text: ZLXY 221400Z 26002MPS 1000 R23R/1900N R23L/P2000 -RA BRSCT008BKN030 OVC050 05/04 Q1025 NOSIG
Loading
Personal Weather Stations






























Interactive Weather Map New forecast layout! Learn more

10-Day Weather Forecast

Advertisements
Track Severe Weather on mobile